Time;durP1;ratioP1;P1;durP2;ratioP2;P2;SDS_P1;SDS_P2;PMS_P1;PMS_P2;Temp;Humidity;BMP_temperature;BMP_pressure;BME280_temperature;BME280_humidity;BME280_pressure;Samples;Min_cycle;Max_cycle;Signal;HPM_P1;HPM_P2
2022/05/22 00:01:54;;;;;;;;;;;;;;;;;;4987419;28;20208;-61
2022/05/22 00:04:20;;;;;;;;;;;;;;;;;;4993832;28;20400;-61
2022/05/22 00:06:45;;;;;;;;;;;;;;;;;;4983098;28;20385;-61
2022/05/22 00:09:10;;;;;;;;;;;;;;;;;;4991403;28;20400;-61
2022/05/22 00:11:35;;;;;;;;;;;;;;;;;;5018239;28;20497;-61
2022/05/22 00:14:00;;;;;;;;;;;;;;;;;;4987880;28;20276;-61
2022/05/22 00:16:41;;;;;;;;;;;;;;;;;;5001329;28;20012;-61
2022/05/22 00:19:06;;;;;;;;;;;;;;;;;;4987272;28;20004;-61
2022/05/22 00:21:32;;;;;;;;;;;;;;;;;;4992096;28;19917;-61
2022/05/22 00:23:57;;;;;;;;;;;;;;;;;;4988542;28;20000;-62
2022/05/22 00:26:22;;;;;;;;;;;;;;;;;;4990344;28;19940;-60
2022/05/22 00:28:47;;;;;;;;;;;;;;;;;;4990777;28;20358;-61
2022/05/22 00:31:12;;;;;;;;;;;;;;;;;;4989225;28;19917;-60
2022/05/22 00:33:38;;;;;;;;;;;;;;;;;;4990394;28;20327;-60
2022/05/22 00:36:03;;;;;;;;;;;;;;;;;;4984590;28;20267;-61
2022/05/22 00:38:28;;;;;;;;;;;;;;;;;;4986319;28;20028;-60
2022/05/22 00:40:53;;;;;;;;;;;;;;;;;;4992684;28;19949;-61
2022/05/22 00:43:19;;;;;;;;;;;;;;;;;;4996621;28;19925;-60
2022/05/22 00:45:44;;;;;;;;;;;;;;;;;;4994831;28;19914;-61
2022/05/22 00:48:09;;;;;;;;;;;;;;;;;;5017487;28;19919;-61
2022/05/22 00:50:34;;;;;;;;;;;;;;;;;;5015838;28;20142;-61
2022/05/22 00:52:59;;;;;;;;;;;;;;;;;;4991587;28;19929;-60
2022/05/22 00:55:25;;;;;;;;;;;;;;;;;;4985434;28;20290;-60
2022/05/22 00:57:50;;;;;;;;;;;;;;;;;;5022498;28;19921;-61
2022/05/22 01:00:15;;;;;;;;;;;;;;;;;;4989925;28;19921;-60
2022/05/22 01:05:28;;;;;;;;;;;;;;;;;;4990587;28;19968;-61
2022/05/22 01:07:53;;;;;;;;;;;;;;;;;;4985562;28;19997;-61
2022/05/22 01:10:18;;;;;;;;;;;;;;;;;;4984800;28;19917;-60
2022/05/22 01:12:43;;;;;;;;;;;;;;;;;;5022816;28;19924;-61
2022/05/22 01:15:08;;;;;;;;;;;;;;;;;;4987506;28;19920;-61
2022/05/22 01:17:34;;;;;;;;;;;;;;;;;;4992571;28;19941;-60
2022/05/22 01:19:59;;;;;;;;;;;;;;;;;;5017176;28;19960;-60
2022/05/22 01:22:26;;;;;;;;;;;;;;;;;;4988810;28;19918;-61
2022/05/22 01:24:52;;;;;;;;;;;;;;;;;;4990689;28;20012;-60
2022/05/22 01:27:17;;;;;;;;;;;;;;;;;;4987537;28;19926;-60
2022/05/22 01:30:00;;;;;;;;;;;;;;;;;;4993512;28;19928;-60
2022/05/22 01:32:26;;;;;;;;;;;;;;;;;;4986932;28;19918;-60
2022/05/22 01:34:51;;;;;;;;;;;;;;;;;;4989517;28;20375;-60
2022/05/22 01:37:16;;;;;;;;;;;;;;;;;;5023685;28;19929;-60
2022/05/22 01:39:42;;;;;;;;;;;;;;;;;;4984723;28;19922;-62
2022/05/22 01:42:08;;;;;;;;;;;;;;;;;;4994812;28;19924;-61
2022/05/22 01:44:33;;;;;;;;;;;;;;;;;;5006165;28;20067;-61
2022/05/22 01:46:59;;;;;;;;;;;;;;;;;;4990276;28;19918;-61
2022/05/22 01:49:26;;;;;;;;;;;;;;;;;;4996310;28;19933;-60
2022/05/22 01:51:52;;;;;;;;;;;;;;;;;;5012522;28;19918;-61
2022/05/22 01:54:17;;;;;;;;;;;;;;;;;;4996007;28;19921;-61
2022/05/22 01:56:42;;;;;;;;;;;;;;;;;;5017109;28;20566;-60
2022/05/22 01:59:10;;;;;;;;;;;;;;;;;;5011391;28;19926;-60
2022/05/22 02:01:40;;;;;;;;;;;;;;;;;;4995074;28;19957;-59
2022/05/22 02:04:05;;;;;;;;;;;;;;;;;;4991395;28;20434;-60
2022/05/22 02:06:34;;;;;;;;;;;;;;;;;;5000000;28;19917;-61
2022/05/22 02:09:09;;;;;;;;;;;;;;;;;;4994856;28;19917;-61
2022/05/22 02:11:40;;;;;;;;;;;;;;;;;;4989844;28;19921;-60
2022/05/22 02:14:05;;;;;;;;;;;;;;;;;;5024533;28;19983;-60
2022/05/22 02:16:30;;;;;;;;;;;;;;;;;;4995122;28;19917;-61
2022/05/22 02:18:56;;;;;;;;;;;;;;;;;;5012631;28;20343;-60
2022/05/22 02:21:23;;;;;;;;;;;;;;;;;;4979006;28;19983;-60
2022/05/22 02:23:48;;;;;;;;;;;;;;;;;;5021931;28;20370;-60
2022/05/22 02:26:13;;;;;;;;;;;;;;;;;;4999398;28;19918;-60
2022/05/22 02:28:42;;;;;;;;;;;;;;;;;;4984092;28;19917;-62
2022/05/22 02:31:07;;;;;;;;;;;;;;;;;;4988556;28;20011;-59
2022/05/22 02:33:32;;;;;;;;;;;;;;;;;;4987889;28;20024;-60
2022/05/22 02:36:05;;;;;;;;;;;;;;;;;;4984414;28;19925;-60
2022/05/22 02:38:33;;;;;;;;;;;;;;;;;;5020317;28;20461;-60
2022/05/22 02:40:58;;;;;;;;;;;;;;;;;;4987625;28;19932;-61
2022/05/22 02:43:23;;;;;;;;;;;;;;;;;;4993106;28;19917;-59
2022/05/22 02:45:54;;;;;;;;;;;;;;;;;;5000820;28;19917;-60
2022/05/22 02:48:19;;;;;;;;;;;;;;;;;;4988778;28;19921;-60
2022/05/22 02:50:59;;;;;;;;;;;;;;;;;;5021798;28;20515;-62
2022/05/22 02:53:25;;;;;;;;;;;;;;;;;;5003555;28;20012;-60
2022/05/22 02:56:09;;;;;;;;;;;;;;;;;;4985506;28;20509;-59
2022/05/22 02:58:47;;;;;;;;;;;;;;;;;;4997383;28;19947;-60
2022/05/22 03:01:12;;;;;;;;;;;;;;;;;;4971476;28;19943;-60
2022/05/22 03:03:37;;;;;;;;;;;;;;;;;;4997010;28;19918;-59
2022/05/22 03:08:48;;;;;;;;;;;;;;;;;;4989879;28;19929;-60
2022/05/22 03:11:13;;;;;;;;;;;;;;;;;;5019009;28;19917;-59
2022/05/22 03:13:38;;;;;;;;;;;;;;;;;;5004026;28;19925;-60
2022/05/22 03:16:03;;;;;;;;;;;;;;;;;;4987421;28;19914;-59
2022/05/22 03:18:42;;;;;;;;;;;;;;;;;;5028334;28;20024;-59
2022/05/22 03:21:16;;;;;;;;;;;;;;;;;;4992747;28;20375;-61
2022/05/22 03:23:42;;;;;;;;;;;;;;;;;;4996381;28;19929;-60
2022/05/22 03:26:09;;;;;;;;;;;;;;;;;;5026701;28;19925;-59
2022/05/22 03:28:34;;;;;;;;;;;;;;;;;;4991069;28;19925;-60
2022/05/22 03:31:00;;;;;;;;;;;;;;;;;;5002155;28;19918;-59
2022/05/22 03:33:25;;;;;;;;;;;;;;;;;;4993337;28;19918;-60
2022/05/22 03:35:52;;;;;;;;;;;;;;;;;;5022393;28;19949;-60
2022/05/22 03:38:17;;;;;;;;;;;;;;;;;;4999655;28;20053;-61
2022/05/22 03:40:42;;;;;;;;;;;;;;;;;;4996777;28;19967;-59
2022/05/22 03:43:07;;;;;;;;;;;;;;;;;;5022493;28;19921;-60
2022/05/22 03:45:33;;;;;;;;;;;;;;;;;;4992451;28;19993;-59
2022/05/22 03:47:58;;;;;;;;;;;;;;;;;;4985049;28;19918;-60
2022/05/22 03:50:25;;;;;;;;;;;;;;;;;;5019721;28;20326;-61
2022/05/22 03:52:51;;;;;;;;;;;;;;;;;;5016826;28;19925;-59
2022/05/22 03:55:28;;;;;;;;;;;;;;;;;;4998176;28;19928;-62
2022/05/22 03:57:56;;;;;;;;;;;;;;;;;;4974087;28;20071;-60
2022/05/22 04:00:21;;;;;;;;;;;;;;;;;;5018509;28;19922;-59
2022/05/22 04:02:50;;;;;;;;;;;;;;;;;;4999698;28;19925;-60
2022/05/22 04:05:17;;;;;;;;;;;;;;;;;;4975733;28;19964;-59
2022/05/22 04:07:42;;;;;;;;;;;;;;;;;;4994784;28;19926;-59
2022/05/22 04:10:08;;;;;;;;;;;;;;;;;;5023077;28;19921;-60
2022/05/22 04:12:35;;;;;;;;;;;;;;;;;;4992965;28;19925;-59
2022/05/22 04:15:01;;;;;;;;;;;;;;;;;;4992385;28;19913;-60
2022/05/22 04:17:26;;;;;;;;;;;;;;;;;;4994036;28;19921;-59
2022/05/22 04:19:55;;;;;;;;;;;;;;;;;;4986694;28;19949;-60
2022/05/22 04:22:20;;;;;;;;;;;;;;;;;;4997399;28;19952;-59
2022/05/22 04:27:31;;;;;;;;;;;;;;;;;;5016906;28;20337;-60
2022/05/22 04:29:58;;;;;;;;;;;;;;;;;;4989609;28;19918;-59
2022/05/22 04:32:25;;;;;;;;;;;;;;;;;;4988536;28;19979;-63
2022/05/22 04:34:54;;;;;;;;;;;;;;;;;;4997133;28;20007;-59
2022/05/22 04:37:20;;;;;;;;;;;;;;;;;;4992916;28;19927;-61
2022/05/22 04:39:53;;;;;;;;;;;;;;;;;;4989691;28;19930;-62
2022/05/22 04:42:19;;;;;;;;;;;;;;;;;;4995680;28;19928;-59
2022/05/22 04:44:44;;;;;;;;;;;;;;;;;;4990683;28;19918;-60
2022/05/22 04:47:28;;;;;;;;;;;;;;;;;;4993737;28;19925;-60
2022/05/22 04:50:12;;;;;;;;;;;;;;;;;;4987412;28;19924;-60
2022/05/22 04:52:57;;;;;;;;;;;;;;;;;;4988370;28;20267;-60
2022/05/22 04:55:22;;;;;;;;;;;;;;;;;;5024389;28;20550;-59
2022/05/22 04:57:47;;;;;;;;;;;;;;;;;;5015616;28;20337;-61
2022/05/22 05:00:13;;;;;;;;;;;;;;;;;;4986833;28;19972;-60
2022/05/22 05:02:47;;;;;;;;;;;;;;;;;;5018522;28;20298;-60
2022/05/22 05:05:12;;;;;;;;;;;;;;;;;;5012374;28;19918;-60
2022/05/22 05:07:38;;;;;;;;;;;;;;;;;;4999779;28;19921;-60
2022/05/22 05:10:22;;;;;;;;;;;;;;;;;;4990007;28;20020;-60
2022/05/22 05:13:00;;;;;;;;;;;;;;;;;;5017688;28;20258;-61
2022/05/22 05:15:29;;;;;;;;;;;;;;;;;;4994777;28;20234;-60
2022/05/22 05:18:03;;;;;;;;;;;;;;;;;;4989905;28;19917;-60
2022/05/22 05:20:29;;;;;;;;;;;;;;;;;;4986087;28;20382;-60
2022/05/22 05:22:58;;;;;;;;;;;;;;;;;;5020341;28;19975;-61
2022/05/22 05:25:35;;;;;;;;;;;;;;;;;;4990236;28;19940;-60
2022/05/22 05:28:01;;;;;;;;;;;;;;;;;;4990130;28;20347;-63
2022/05/22 05:30:26;;;;;;;;;;;;;;;;;;4984261;28;20322;-61
2022/05/22 05:32:51;;;;;;;;;;;;;;;;;;4984848;28;20259;-61
2022/05/22 05:35:35;;;;;;;;;;;;;;;;;;4999369;28;19921;-59
2022/05/22 05:38:04;;;;;;;;;;;;;;;;;;4967995;28;19936;-61
2022/05/22 05:40:29;;;;;;;;;;;;;;;;;;4994041;28;20278;-60
2022/05/22 05:42:55;;;;;;;;;;;;;;;;;;5021392;28;19935;-60
2022/05/22 05:45:20;;;;;;;;;;;;;;;;;;5015630;28;19913;-60
2022/05/22 05:47:50;;;;;;;;;;;;;;;;;;5024171;28;20024;-60
2022/05/22 05:50:22;;;;;;;;;;;;;;;;;;4980288;28;20410;-59
2022/05/22 05:53:01;;;;;;;;;;;;;;;;;;5019692;28;19921;-60
2022/05/22 05:55:54;;;;;;;;;;;;;;;;;;4996136;28;20203;-59
2022/05/22 05:58:43;;;;;;;;;;;;;;;;;;4994727;28;19929;-60
2022/05/22 06:01:38;;;;;;;;;;;;;;;;;;4978635;28;19925;-60
2022/05/22 06:04:04;;;;;;;;;;;;;;;;;;5001224;28;20389;-60
2022/05/22 06:06:30;;;;;;;;;;;;;;;;;;4984612;28;20009;-60
2022/05/22 06:08:57;;;;;;;;;;;;;;;;;;4962983;28;20298;-60
2022/05/22 06:11:32;;;;;;;;;;;;;;;;;;5022473;28;19952;-60
2022/05/22 06:14:03;;;;;;;;;;;;;;;;;;5019149;28;19909;-60
2022/05/22 06:16:29;;;;;;;;;;;;;;;;;;4999360;28;19987;-60
2022/05/22 06:19:01;;;;;;;;;;;;;;;;;;4987757;28;19917;-59
2022/05/22 06:21:26;;;;;;;;;;;;;;;;;;4985148;28;19960;-61
2022/05/22 06:23:52;;;;;;;;;;;;;;;;;;5022631;28;19914;-60
2022/05/22 06:26:36;;;;;;;;;;;;;;;;;;4981636;28;19925;-60
2022/05/22 06:29:23;;;;;;;;;;;;;;;;;;5019373;28;20003;-61
2022/05/22 06:32:12;;;;;;;;;;;;;;;;;;5000055;28;20007;-62
2022/05/22 06:34:55;;;;;;;;;;;;;;;;;;4985696;28;19925;-61
2022/05/22 06:37:38;;;;;;;;;;;;;;;;;;4980160;28;20044;-61
2022/05/22 06:40:18;;;;;;;;;;;;;;;;;;4989392;28;19933;-61
2022/05/22 06:43:16;;;;;;;;;;;;;;;;;;4981331;28;19917;-62
2022/05/22 06:45:51;;;;;;;;;;;;;;;;;;4985804;28;19919;-62
2022/05/22 06:48:34;;;;;;;;;;;;;;;;;;4996772;28;19924;-62
2022/05/22 06:51:17;;;;;;;;;;;;;;;;;;4975508;28;19914;-62
2022/05/22 06:54:14;;;;;;;;;;;;;;;;;;4992399;28;19918;-63
2022/05/22 06:57:00;;;;;;;;;;;;;;;;;;4988219;28;19924;-61
2022/05/22 06:59:33;;;;;;;;;;;;;;;;;;5026525;28;19932;-62
2022/05/22 07:02:30;;;;;;;;;;;;;;;;;;4991584;28;20675;-61
2022/05/22 07:05:10;;;;;;;;;;;;;;;;;;5003785;28;19939;-62
2022/05/22 07:07:54;;;;;;;;;;;;;;;;;;4989940;28;20073;-62
2022/05/22 07:13:59;;;;;;;;;;;;;;;;;;4974373;28;20367;-61
2022/05/22 07:16:29;;;;;;;;;;;;;;;;;;4982825;28;19917;-61
2022/05/22 07:19:03;;;;;;;;;;;;;;;;;;4970240;28;19925;-61
2022/05/22 07:21:46;;;;;;;;;;;;;;;;;;4995353;28;19917;-61
2022/05/22 07:24:30;;;;;;;;;;;;;;;;;;5002175;28;19925;-61
2022/05/22 07:27:11;;;;;;;;;;;;;;;;;;5021815;28;19968;-61
2022/05/22 07:30:06;;;;;;;;;;;;;;;;;;4962604;28;19918;-62
2022/05/22 07:32:40;;;;;;;;;;;;;;;;;;4996389;28;19917;-61
2022/05/22 07:35:26;;;;;;;;;;;;;;;;;;4986499;28;19918;-62
2022/05/22 07:38:04;;;;;;;;;;;;;;;;;;4994708;28;20012;-62
2022/05/22 07:40:48;;;;;;;;;;;;;;;;;;5000274;28;19924;-62
2022/05/22 07:43:32;;;;;;;;;;;;;;;;;;4989490;28;20051;-62
2022/05/22 07:46:06;;;;;;;;;;;;;;;;;;4994831;28;19972;-63
2022/05/22 07:48:41;;;;;;;;;;;;;;;;;;4993200;28;19956;-61
2022/05/22 07:51:28;;;;;;;;;;;;;;;;;;5020832;28;19981;-62
2022/05/22 07:54:29;;;;;;;;;;;;;;;;;;4987105;28;19921;-61
2022/05/22 07:57:13;;;;;;;;;;;;;;;;;;4991320;28;19971;-63
2022/05/22 07:59:58;;;;;;;;;;;;;;;;;;4966027;28;20271;-62
2022/05/22 08:02:39;;;;;;;;;;;;;;;;;;4984969;28;20008;-63
2022/05/22 08:05:04;;;;;;;;;;;;;;;;;;4983785;28;20667;-61
2022/05/22 08:07:38;;;;;;;;;;;;;;;;;;4994046;28;19924;-63
2022/05/22 08:10:11;;;;;;;;;;;;;;;;;;5016596;28;19918;-62
2022/05/22 08:12:38;;;;;;;;;;;;;;;;;;4992788;28;19917;-62
2022/05/22 08:15:11;;;;;;;;;;;;;;;;;;4986646;28;20005;-63
2022/05/22 08:17:36;;;;;;;;;;;;;;;;;;4998359;28;19926;-63
2022/05/22 08:20:03;;;;;;;;;;;;;;;;;;4984983;28;20028;-62
2022/05/22 08:22:44;;;;;;;;;;;;;;;;;;4988585;28;20282;-62
2022/05/22 08:25:18;;;;;;;;;;;;;;;;;;4991118;28;19918;-62
2022/05/22 08:27:43;;;;;;;;;;;;;;;;;;5018533;28;19932;-62
2022/05/22 08:30:08;;;;;;;;;;;;;;;;;;4974244;28;19964;-63
2022/05/22 08:32:36;;;;;;;;;;;;;;;;;;4992721;28;20572;-62
2022/05/22 08:35:01;;;;;;;;;;;;;;;;;;4988580;28;20383;-63
2022/05/22 08:37:27;;;;;;;;;;;;;;;;;;4996034;28;19922;-62
2022/05/22 08:39:52;;;;;;;;;;;;;;;;;;4991970;28;19924;-62
2022/05/22 08:42:18;;;;;;;;;;;;;;;;;;4984308;28;19953;-62
2022/05/22 08:44:43;;;;;;;;;;;;;;;;;;4989887;28;20242;-64
2022/05/22 08:47:08;;;;;;;;;;;;;;;;;;4988231;28;19921;-62
2022/05/22 08:49:33;;;;;;;;;;;;;;;;;;4991526;28;19983;-62
2022/05/22 08:51:58;;;;;;;;;;;;;;;;;;4995105;28;19922;-62
2022/05/22 08:54:24;;;;;;;;;;;;;;;;;;4986847;28;20576;-62
2022/05/22 08:59:34;;;;;;;;;;;;;;;;;;4990214;28;19926;-63
2022/05/22 09:01:59;;;;;;;;;;;;;;;;;;4992422;28;19924;-63
2022/05/22 09:04:25;;;;;;;;;;;;;;;;;;5014663;28;20238;-63
2022/05/22 09:06:50;;;;;;;;;;;;;;;;;;4987056;28;19960;-62
2022/05/22 09:09:16;;;;;;;;;;;;;;;;;;4992596;28;19918;-62
2022/05/22 09:11:41;;;;;;;;;;;;;;;;;;5003318;28;19964;-63
2022/05/22 09:14:06;;;;;;;;;;;;;;;;;;4991973;28;19921;-64
2022/05/22 09:16:31;;;;;;;;;;;;;;;;;;4988244;28;19917;-63
2022/05/22 09:18:57;;;;;;;;;;;;;;;;;;4986395;28;19925;-64
2022/05/22 09:21:22;;;;;;;;;;;;;;;;;;4991302;28;19918;-64
2022/05/22 09:23:47;;;;;;;;;;;;;;;;;;4991272;28;19918;-63
2022/05/22 09:26:12;;;;;;;;;;;;;;;;;;4990032;28;20286;-64
2022/05/22 09:28:37;;;;;;;;;;;;;;;;;;4988742;28;19917;-63
2022/05/22 09:31:04;;;;;;;;;;;;;;;;;;4987417;28;19917;-64
2022/05/22 09:33:29;;;;;;;;;;;;;;;;;;4999116;28;19921;-63
2022/05/22 09:35:56;;;;;;;;;;;;;;;;;;4987245;28;20569;-62
2022/05/22 09:38:22;;;;;;;;;;;;;;;;;;4987707;28;20750;-64
2022/05/22 09:40:47;;;;;;;;;;;;;;;;;;4992106;28;19918;-63
2022/05/22 09:43:12;;;;;;;;;;;;;;;;;;4987975;28;19918;-63
2022/05/22 09:45:38;;;;;;;;;;;;;;;;;;5000156;28;19920;-63
2022/05/22 09:48:03;;;;;;;;;;;;;;;;;;4985312;28;20004;-63
2022/05/22 09:50:28;;;;;;;;;;;;;;;;;;4986904;28;19922;-64
2022/05/22 09:52:54;;;;;;;;;;;;;;;;;;4989532;28;19921;-63
2022/05/22 09:55:19;;;;;;;;;;;;;;;;;;4984078;28;20012;-63
2022/05/22 09:57:44;;;;;;;;;;;;;;;;;;4987476;28;20020;-63
2022/05/22 10:00:10;;;;;;;;;;;;;;;;;;4987301;28;20378;-63
2022/05/22 10:02:38;;;;;;;;;;;;;;;;;;4984224;28;19918;-62
2022/05/22 10:05:03;;;;;;;;;;;;;;;;;;4992640;28;20613;-63
2022/05/22 10:07:28;;;;;;;;;;;;;;;;;;4989173;28;19941;-62
2022/05/22 10:09:54;;;;;;;;;;;;;;;;;;4996059;28;19917;-63
2022/05/22 10:12:19;;;;;;;;;;;;;;;;;;4988862;28;20381;-63
2022/05/22 10:14:44;;;;;;;;;;;;;;;;;;4989301;28;20529;-63
2022/05/22 10:17:10;;;;;;;;;;;;;;;;;;4994920;28;19914;-63
2022/05/22 10:19:35;;;;;;;;;;;;;;;;;;4991343;28;20055;-63
2022/05/22 10:22:00;;;;;;;;;;;;;;;;;;4996158;28;19929;-61
2022/05/22 10:24:26;;;;;;;;;;;;;;;;;;4996359;28;20401;-63
2022/05/22 10:26:51;;;;;;;;;;;;;;;;;;4989478;28;20278;-63
2022/05/22 10:29:16;;;;;;;;;;;;;;;;;;4994421;28;20729;-63
2022/05/22 10:31:41;;;;;;;;;;;;;;;;;;4989231;28;19918;-63
2022/05/22 10:34:06;;;;;;;;;;;;;;;;;;4995919;28;20368;-63
2022/05/22 10:36:32;;;;;;;;;;;;;;;;;;4990046;28;20365;-64
2022/05/22 10:38:57;;;;;;;;;;;;;;;;;;4991075;28;19925;-63
2022/05/22 10:44:06;;;;;;;;;;;;;;;;;;4990765;28;19953;-63
2022/05/22 10:46:32;;;;;;;;;;;;;;;;;;4995796;28;19925;-63
2022/05/22 10:48:58;;;;;;;;;;;;;;;;;;4990596;28;19913;-63
2022/05/22 10:51:23;;;;;;;;;;;;;;;;;;4987779;28;19941;-64
2022/05/22 10:53:49;;;;;;;;;;;;;;;;;;4994641;28;19929;-63
2022/05/22 10:56:14;;;;;;;;;;;;;;;;;;4988266;28;20367;-63
2022/05/22 10:58:39;;;;;;;;;;;;;;;;;;4993280;28;20369;-63
2022/05/22 11:01:04;;;;;;;;;;;;;;;;;;4990134;28;19971;-63
2022/05/22 11:03:30;;;;;;;;;;;;;;;;;;4987799;28;19918;-63
2022/05/22 11:05:55;;;;;;;;;;;;;;;;;;4994668;28;19941;-63
2022/05/22 11:08:20;;;;;;;;;;;;;;;;;;4987820;28;19933;-63
2022/05/22 11:10:47;;;;;;;;;;;;;;;;;;4995773;28;20909;-62
2022/05/22 11:13:12;;;;;;;;;;;;;;;;;;4986613;28;19918;-63
2022/05/22 11:15:39;;;;;;;;;;;;;;;;;;4987909;28;19963;-62
2022/05/22 11:18:04;;;;;;;;;;;;;;;;;;4994302;28;19922;-63
2022/05/22 11:20:30;;;;;;;;;;;;;;;;;;4990985;28;19952;-63
2022/05/22 11:22:58;;;;;;;;;;;;;;;;;;4993691;28;19917;-63
2022/05/22 11:25:23;;;;;;;;;;;;;;;;;;4990207;28;19957;-62
2022/05/22 11:27:49;;;;;;;;;;;;;;;;;;4989904;28;20048;-63
2022/05/22 11:30:14;;;;;;;;;;;;;;;;;;4995133;28;19988;-64
2022/05/22 11:32:40;;;;;;;;;;;;;;;;;;4985522;28;19960;-63
2022/05/22 11:35:05;;;;;;;;;;;;;;;;;;4994837;28;20025;-64
2022/05/22 11:37:30;;;;;;;;;;;;;;;;;;4988946;28;20644;-65
2022/05/22 11:39:55;;;;;;;;;;;;;;;;;;4986357;28;20286;-64
2022/05/22 11:42:20;;;;;;;;;;;;;;;;;;4994254;28;19917;-64
2022/05/22 11:44:46;;;;;;;;;;;;;;;;;;4987568;28;19966;-64
2022/05/22 11:47:11;;;;;;;;;;;;;;;;;;4992487;28;19960;-64
2022/05/22 11:49:38;;;;;;;;;;;;;;;;;;4987809;28;20232;-64
2022/05/22 11:52:03;;;;;;;;;;;;;;;;;;4988131;28;19918;-64
2022/05/22 11:54:29;;;;;;;;;;;;;;;;;;4992512;28;20035;-63
2022/05/22 11:56:54;;;;;;;;;;;;;;;;;;4989772;28;20013;-63
2022/05/22 11:59:19;;;;;;;;;;;;;;;;;;4996381;28;19937;-64
2022/05/22 12:01:45;;;;;;;;;;;;;;;;;;4988045;28;20020;-64
2022/05/22 12:04:10;;;;;;;;;;;;;;;;;;4986727;28;19972;-64
2022/05/22 12:06:36;;;;;;;;;;;;;;;;;;4993927;28;19914;-64
2022/05/22 12:09:02;;;;;;;;;;;;;;;;;;4984241;28;19918;-64
2022/05/22 12:11:27;;;;;;;;;;;;;;;;;;5025696;28;19925;-64
2022/05/22 12:13:53;;;;;;;;;;;;;;;;;;4988714;28;20327;-64
2022/05/22 12:16:18;;;;;;;;;;;;;;;;;;4987056;28;19918;-65
2022/05/22 12:18:43;;;;;;;;;;;;;;;;;;4992733;28;19922;-65
2022/05/22 12:21:08;;;;;;;;;;;;;;;;;;4992782;28;19940;-65
2022/05/22 12:23:34;;;;;;;;;;;;;;;;;;4992973;28;20398;-65
2022/05/22 12:25:59;;;;;;;;;;;;;;;;;;4985933;28;20494;-64
2022/05/22 12:28:25;;;;;;;;;;;;;;;;;;4987702;28;20316;-65
2022/05/22 12:30:50;;;;;;;;;;;;;;;;;;4995085;28;19917;-65
2022/05/22 12:33:16;;;;;;;;;;;;;;;;;;4983273;28;19918;-65
2022/05/22 12:35:41;;;;;;;;;;;;;;;;;;4990915;28;19967;-65
2022/05/22 12:38:06;;;;;;;;;;;;;;;;;;4990107;28;19926;-65
2022/05/22 12:40:31;;;;;;;;;;;;;;;;;;4986406;28;20263;-65
2022/05/22 12:42:56;;;;;;;;;;;;;;;;;;4993535;28;19953;-65
2022/05/22 12:45:22;;;;;;;;;;;;;;;;;;4985183;28;19925;-65
2022/05/22 12:47:47;;;;;;;;;;;;;;;;;;4992402;28;19921;-65
2022/05/22 12:50:12;;;;;;;;;;;;;;;;;;4990496;28;19923;-65
2022/05/22 12:52:37;;;;;;;;;;;;;;;;;;4986765;28;20333;-65
2022/05/22 12:55:04;;;;;;;;;;;;;;;;;;4996908;28;19993;-65
2022/05/22 12:57:29;;;;;;;;;;;;;;;;;;4986994;28;20874;-65
2022/05/22 12:59:54;;;;;;;;;;;;;;;;;;4992771;28;19969;-65
2022/05/22 13:02:23;;;;;;;;;;;;;;;;;;4986488;28;20375;-65
2022/05/22 13:04:48;;;;;;;;;;;;;;;;;;4987178;28;19921;-65
2022/05/22 13:07:14;;;;;;;;;;;;;;;;;;4993717;28;20406;-64
2022/05/22 13:09:39;;;;;;;;;;;;;;;;;;4992591;28;20437;-64
2022/05/22 13:12:04;;;;;;;;;;;;;;;;;;4993423;28;20342;-65
2022/05/22 13:14:29;;;;;;;;;;;;;;;;;;4989306;28;19922;-65
2022/05/22 13:16:55;;;;;;;;;;;;;;;;;;4989131;28;20004;-65
2022/05/22 13:19:20;;;;;;;;;;;;;;;;;;4990378;28;20366;-65
2022/05/22 13:21:45;;;;;;;;;;;;;;;;;;4984902;28;20338;-65
2022/05/22 13:24:11;;;;;;;;;;;;;;;;;;4992076;28;19997;-66
2022/05/22 13:26:36;;;;;;;;;;;;;;;;;;4989031;28;20321;-65
2022/05/22 13:29:02;;;;;;;;;;;;;;;;;;4986692;28;19917;-65
2022/05/22 13:31:27;;;;;;;;;;;;;;;;;;4993230;28;19917;-65
2022/05/22 13:33:52;;;;;;;;;;;;;;;;;;4984814;28;19913;-65
2022/05/22 13:36:17;;;;;;;;;;;;;;;;;;4990793;28;19960;-65
2022/05/22 13:38:42;;;;;;;;;;;;;;;;;;4987759;28;19925;-65
2022/05/22 13:41:08;;;;;;;;;;;;;;;;;;4984760;28;20027;-65
2022/05/22 13:43:33;;;;;;;;;;;;;;;;;;4990796;28;20268;-66
2022/05/22 13:45:58;;;;;;;;;;;;;;;;;;4986609;28;20386;-66
2022/05/22 13:48:23;;;;;;;;;;;;;;;;;;4992677;28;19918;-66
2022/05/22 13:53:32;;;;;;;;;;;;;;;;;;4986570;28;19972;-65
2022/05/22 13:55:57;;;;;;;;;;;;;;;;;;5023482;28;20318;-66
2022/05/22 13:58:23;;;;;;;;;;;;;;;;;;4987237;28;20411;-66
2022/05/22 14:00:48;;;;;;;;;;;;;;;;;;4986941;28;20004;-65
2022/05/22 14:03:13;;;;;;;;;;;;;;;;;;4993666;28;20367;-65
2022/05/22 14:05:38;;;;;;;;;;;;;;;;;;4988398;28;20075;-65
2022/05/22 14:08:03;;;;;;;;;;;;;;;;;;4992560;28;20390;-65
2022/05/22 14:10:29;;;;;;;;;;;;;;;;;;4985399;28;19918;-65
2022/05/22 14:12:54;;;;;;;;;;;;;;;;;;4989434;28;19944;-65
2022/05/22 14:15:20;;;;;;;;;;;;;;;;;;4992929;28;19952;-65
2022/05/22 14:17:46;;;;;;;;;;;;;;;;;;4987341;28;20047;-65
2022/05/22 14:20:12;;;;;;;;;;;;;;;;;;4993731;28;19918;-65
2022/05/22 14:22:39;;;;;;;;;;;;;;;;;;4986318;28;19917;-65
2022/05/22 14:25:05;;;;;;;;;;;;;;;;;;4983956;28;19920;-65
2022/05/22 14:27:31;;;;;;;;;;;;;;;;;;5020997;28;19926;-66
2022/05/22 14:29:56;;;;;;;;;;;;;;;;;;4984721;28;19945;-66
2022/05/22 14:32:21;;;;;;;;;;;;;;;;;;4988576;28;19968;-66
2022/05/22 14:34:47;;;;;;;;;;;;;;;;;;4986752;28;19917;-66
2022/05/22 14:37:12;;;;;;;;;;;;;;;;;;4987041;28;20763;-66
2022/05/22 14:39:37;;;;;;;;;;;;;;;;;;4989695;28;19972;-66
2022/05/22 14:42:08;;;;;;;;;;;;;;;;;;4986926;28;20313;-66
2022/05/22 14:44:33;;;;;;;;;;;;;;;;;;4990558;28;19921;-65
2022/05/22 14:46:59;;;;;;;;;;;;;;;;;;4988511;28;19913;-66
2022/05/22 14:49:24;;;;;;;;;;;;;;;;;;4987184;28;19918;-66
2022/05/22 14:51:50;;;;;;;;;;;;;;;;;;4994600;28;19921;-65
2022/05/22 14:54:16;;;;;;;;;;;;;;;;;;4988217;28;20268;-65
2022/05/22 14:56:41;;;;;;;;;;;;;;;;;;4994567;28;19924;-65
2022/05/22 14:59:06;;;;;;;;;;;;;;;;;;4991947;28;19925;-65
2022/05/22 15:01:32;;;;;;;;;;;;;;;;;;4996470;28;20309;-65
2022/05/22 15:04:00;;;;;;;;;;;;;;;;;;4994472;28;19917;-65
2022/05/22 15:06:27;;;;;;;;;;;;;;;;;;4995557;28;19929;-64
2022/05/22 15:08:53;;;;;;;;;;;;;;;;;;4996100;28;20631;-64
2022/05/22 15:11:18;;;;;;;;;;;;;;;;;;4988565;28;19918;-65
2022/05/22 15:13:43;;;;;;;;;;;;;;;;;;4990809;28;19925;-64
2022/05/22 15:16:09;;;;;;;;;;;;;;;;;;4996648;28;19987;-64
2022/05/22 15:21:18;;;;;;;;;;;;;;;;;;4985818;28;19917;-64
2022/05/22 15:26:27;;;;;;;;;;;;;;;;;;4990170;28;19945;-63
2022/05/22 15:28:53;;;;;;;;;;;;;;;;;;4993046;28;19917;-63
2022/05/22 15:31:18;;;;;;;;;;;;;;;;;;4988612;28;19918;-64
2022/05/22 15:33:43;;;;;;;;;;;;;;;;;;4990839;28;19991;-63
2022/05/22 15:36:12;;;;;;;;;;;;;;;;;;4995089;28;20363;-62
2022/05/22 15:38:37;;;;;;;;;;;;;;;;;;4987037;28;19925;-63
2022/05/22 15:41:02;;;;;;;;;;;;;;;;;;4997680;28;20000;-62
2022/05/22 15:43:28;;;;;;;;;;;;;;;;;;4986542;28;20543;-64
2022/05/22 15:45:53;;;;;;;;;;;;;;;;;;4988476;28;19917;-63
2022/05/22 15:51:03;;;;;;;;;;;;;;;;;;4986621;28;19917;-63
2022/05/22 15:53:28;;;;;;;;;;;;;;;;;;4990282;28;20023;-64
2022/05/22 15:55:53;;;;;;;;;;;;;;;;;;4990719;28;19918;-63
2022/05/22 15:58:18;;;;;;;;;;;;;;;;;;4995153;28;19926;-63
2022/05/22 16:00:44;;;;;;;;;;;;;;;;;;4992464;28;19961;-64
2022/05/22 16:03:09;;;;;;;;;;;;;;;;;;4987807;28;19996;-64
2022/05/22 16:05:34;;;;;;;;;;;;;;;;;;4992110;28;20016;-65
2022/05/22 16:07:59;;;;;;;;;;;;;;;;;;4992891;28;20651;-64
2022/05/22 16:10:28;;;;;;;;;;;;;;;;;;4989657;28;19928;-63
2022/05/22 16:12:53;;;;;;;;;;;;;;;;;;4995191;28;19945;-63
2022/05/22 16:15:18;;;;;;;;;;;;;;;;;;4981998;28;19926;-64
2022/05/22 16:17:45;;;;;;;;;;;;;;;;;;4987987;28;20474;-64
2022/05/22 16:20:11;;;;;;;;;;;;;;;;;;4993055;28;20342;-63
2022/05/22 16:22:36;;;;;;;;;;;;;;;;;;4987840;28;19925;-64
2022/05/22 16:25:01;;;;;;;;;;;;;;;;;;4993515;28;19925;-63
2022/05/22 16:27:27;;;;;;;;;;;;;;;;;;4987528;28;20371;-63
2022/05/22 16:29:53;;;;;;;;;;;;;;;;;;4988168;28;19933;-64
2022/05/22 16:32:18;;;;;;;;;;;;;;;;;;4993378;28;19914;-63
2022/05/22 16:34:44;;;;;;;;;;;;;;;;;;4987387;28;19929;-63
2022/05/22 16:37:11;;;;;;;;;;;;;;;;;;4992741;28;19917;-63
2022/05/22 16:39:36;;;;;;;;;;;;;;;;;;4987273;28;20020;-61
2022/05/22 16:42:02;;;;;;;;;;;;;;;;;;4990473;28;19918;-62
2022/05/22 16:44:27;;;;;;;;;;;;;;;;;;4999314;28;20031;-62
2022/05/22 16:46:52;;;;;;;;;;;;;;;;;;4988274;28;19936;-63
2022/05/22 16:54:46;;;;;;;;;;;;;;;;;;4987545;28;19922;-62
2022/05/22 16:57:11;;;;;;;;;;;;;;;;;;4992543;28;19913;-62
2022/05/22 16:59:36;;;;;;;;;;;;;;;;;;4985012;28;20377;-62
2022/05/22 17:02:01;;;;;;;;;;;;;;;;;;4991762;28;19918;-64
2022/05/22 17:04:27;;;;;;;;;;;;;;;;;;4990076;28;19956;-62
2022/05/22 17:06:52;;;;;;;;;;;;;;;;;;4989813;28;20032;-62
2022/05/22 17:09:17;;;;;;;;;;;;;;;;;;4992713;28;20057;-62
2022/05/22 17:11:43;;;;;;;;;;;;;;;;;;4987316;28;21509;-62
2022/05/22 17:14:08;;;;;;;;;;;;;;;;;;4990590;28;20365;-65
2022/05/22 17:16:34;;;;;;;;;;;;;;;;;;4991294;28;20004;-62
2022/05/22 17:18:59;;;;;;;;;;;;;;;;;;4981440;28;19925;-62
2022/05/22 17:21:24;;;;;;;;;;;;;;;;;;5004583;28;19924;-62
2022/05/22 17:23:49;;;;;;;;;;;;;;;;;;4990506;28;19921;-62
2022/05/22 17:26:15;;;;;;;;;;;;;;;;;;4988172;28;19930;-63